sensor_id;sensor_type;location;lat;lon;timestamp;temperature;humidity
21918;DHT22;11123;49.882;8.662;2022-07-12T00:02:17;17.40;99.90
21918;DHT22;11123;49.882;8.662;2022-07-12T00:04:49;17.30;99.90
21918;DHT22;11123;49.882;8.662;2022-07-12T00:07:20;17.30;99.90
21918;DHT22;11123;49.882;8.662;2022-07-12T00:10:04;17.20;99.90
21918;DHT22;11123;49.882;8.662;2022-07-12T00:12:33;17.10;99.90
21918;DHT22;11123;49.882;8.662;2022-07-12T00:15:13;17.10;99.90
21918;DHT22;11123;49.882;8.662;2022-07-12T00:17:49;17.00;99.90
21918;DHT22;11123;49.882;8.662;2022-07-12T00:20:19;17.00;99.90
21918;DHT22;11123;49.882;8.662;2022-07-12T00:22:47;16.90;99.90
21918;DHT22;11123;49.882;8.662;2022-07-12T00:25:21;17.00;99.90
21918;DHT22;11123;49.882;8.662;2022-07-12T00:27:52;17.00;99.90
21918;DHT22;11123;49.882;8.662;2022-07-12T00:30:22;17.00;99.90
21918;DHT22;11123;49.882;8.662;2022-07-12T00:32:54;17.10;99.90
21918;DHT22;11123;49.882;8.662;2022-07-12T00:35:26;17.10;99.90
21918;DHT22;11123;49.882;8.662;2022-07-12T00:37:57;17.00;99.90
21918;DHT22;11123;49.882;8.662;2022-07-12T00:40:25;16.90;99.90
21918;DHT22;11123;49.882;8.662;2022-07-12T00:42:53;16.90;99.90
21918;DHT22;11123;49.882;8.662;2022-07-12T00:45:23;16.80;99.90
21918;DHT22;11123;49.882;8.662;2022-07-12T00:47:52;16.70;99.90
21918;DHT22;11123;49.882;8.662;2022-07-12T00:50:22;16.60;99.90
21918;DHT22;11123;49.882;8.662;2022-07-12T00:52:52;16.60;99.90
21918;DHT22;11123;49.882;8.662;2022-07-12T00:55:22;16.60;99.90
21918;DHT22;11123;49.882;8.662;2022-07-12T00:57:51;16.50;99.90
21918;DHT22;11123;49.882;8.662;2022-07-12T01:00:47;16.50;99.90
21918;DHT22;11123;49.882;8.662;2022-07-12T01:03:15;16.40;99.90
21918;DHT22;11123;49.882;8.662;2022-07-12T01:05:44;16.40;99.90
21918;DHT22;11123;49.882;8.662;2022-07-12T01:08:15;16.40;99.90
21918;DHT22;11123;49.882;8.662;2022-07-12T01:10:44;16.40;99.90
21918;DHT22;11123;49.882;8.662;2022-07-12T01:13:13;16.40;99.90
21918;DHT22;11123;49.882;8.662;2022-07-12T01:15:42;16.30;99.90
21918;DHT22;11123;49.882;8.662;2022-07-12T01:18:12;16.30;99.90
21918;DHT22;11123;49.882;8.662;2022-07-12T01:20:42;16.30;99.90
21918;DHT22;11123;49.882;8.662;2022-07-12T01:23:13;16.20;99.90
21918;DHT22;11123;49.882;8.662;2022-07-12T01:25:41;16.20;99.90
21918;DHT22;11123;49.882;8.662;2022-07-12T01:28:10;16.20;99.90
21918;DHT22;11123;49.882;8.662;2022-07-12T01:30:38;16.20;99.90
21918;DHT22;11123;49.882;8.662;2022-07-12T01:33:08;16.10;99.90
21918;DHT22;11123;49.882;8.662;2022-07-12T01:35:36;16.10;99.90
21918;DHT22;11123;49.882;8.662;2022-07-12T01:38:04;16.10;99.90
21918;DHT22;11123;49.882;8.662;2022-07-12T01:40:34;16.10;99.90
21918;DHT22;11123;49.882;8.662;2022-07-12T01:43:04;16.10;99.90
21918;DHT22;11123;49.882;8.662;2022-07-12T01:45:34;16.20;99.90
21918;DHT22;11123;49.882;8.662;2022-07-12T01:48:03;16.10;99.90
21918;DHT22;11123;49.882;8.662;2022-07-12T01:50:32;16.10;99.90
21918;DHT22;11123;49.882;8.662;2022-07-12T01:53:00;16.10;99.90
21918;DHT22;11123;49.882;8.662;2022-07-12T01:55:31;16.10;99.90
21918;DHT22;11123;49.882;8.662;2022-07-12T01:58:01;16.10;99.90
21918;DHT22;11123;49.882;8.662;2022-07-12T02:00:29;16.10;99.90
21918;DHT22;11123;49.882;8.662;2022-07-12T02:02:59;16.00;99.90
21918;DHT22;11123;49.882;8.662;2022-07-12T02:05:27;16.00;99.90
21918;DHT22;11123;49.882;8.662;2022-07-12T02:07:56;16.00;99.90
21918;DHT22;11123;49.882;8.662;2022-07-12T02:10:25;15.90;99.90
21918;DHT22;11123;49.882;8.662;2022-07-12T02:12:53;15.90;99.90
21918;DHT22;11123;49.882;8.662;2022-07-12T02:15:23;15.90;99.90
21918;DHT22;11123;49.882;8.662;2022-07-12T02:17:51;15.90;99.90
21918;DHT22;11123;49.882;8.662;2022-07-12T02:20:19;15.90;99.90
21918;DHT22;11123;49.882;8.662;2022-07-12T02:22:47;15.90;99.90
21918;DHT22;11123;49.882;8.662;2022-07-12T02:25:16;15.90;99.90
21918;DHT22;11123;49.882;8.662;2022-07-12T02:27:44;15.80;99.90
21918;DHT22;11123;49.882;8.662;2022-07-12T02:30:13;15.70;99.90
21918;DHT22;11123;49.882;8.662;2022-07-12T02:32:43;15.80;99.90
21918;DHT22;11123;49.882;8.662;2022-07-12T02:35:11;15.80;99.90
21918;DHT22;11123;49.882;8.662;2022-07-12T02:37:39;15.80;99.90
21918;DHT22;11123;49.882;8.662;2022-07-12T02:40:09;15.80;99.90
21918;DHT22;11123;49.882;8.662;2022-07-12T02:42:55;15.80;99.90
21918;DHT22;11123;49.882;8.662;2022-07-12T02:45:23;15.90;99.90
21918;DHT22;11123;49.882;8.662;2022-07-12T02:47:57;15.90;99.90
21918;DHT22;11123;49.882;8.662;2022-07-12T02:50:36;16.00;99.90
21918;DHT22;11123;49.882;8.662;2022-07-12T02:53:05;16.00;99.90
21918;DHT22;11123;49.882;8.662;2022-07-12T02:55:33;16.00;99.90
21918;DHT22;11123;49.882;8.662;2022-07-12T02:58:02;16.00;99.90
21918;DHT22;11123;49.882;8.662;2022-07-12T03:00:31;16.00;99.90
21918;DHT22;11123;49.882;8.662;2022-07-12T03:03:00;16.00;99.90
21918;DHT22;11123;49.882;8.662;2022-07-12T03:05:29;16.00;99.90
21918;DHT22;11123;49.882;8.662;2022-07-12T03:07:57;16.10;99.90
21918;DHT22;11123;49.882;8.662;2022-07-12T03:10:25;16.10;99.90
21918;DHT22;11123;49.882;8.662;2022-07-12T03:12:53;16.10;99.90
21918;DHT22;11123;49.882;8.662;2022-07-12T03:15:22;16.10;99.90
21918;DHT22;11123;49.882;8.662;2022-07-12T03:17:50;16.10;99.90
21918;DHT22;11123;49.882;8.662;2022-07-12T03:20:20;16.10;99.90
21918;DHT22;11123;49.882;8.662;2022-07-12T03:22:48;16.10;99.90
21918;DHT22;11123;49.882;8.662;2022-07-12T03:25:20;16.00;99.90
21918;DHT22;11123;49.882;8.662;2022-07-12T03:27:48;16.00;99.90
21918;DHT22;11123;49.882;8.662;2022-07-12T03:30:16;15.90;99.90
21918;DHT22;11123;49.882;8.662;2022-07-12T03:32:45;15.90;99.90
21918;DHT22;11123;49.882;8.662;2022-07-12T03:35:13;15.90;99.90
21918;DHT22;11123;49.882;8.662;2022-07-12T03:37:45;15.90;99.90
21918;DHT22;11123;49.882;8.662;2022-07-12T03:40:14;15.90;99.90
21918;DHT22;11123;49.882;8.662;2022-07-12T03:42:43;15.80;99.90
21918;DHT22;11123;49.882;8.662;2022-07-12T03:45:12;15.80;99.90
21918;DHT22;11123;49.882;8.662;2022-07-12T03:47:41;15.80;99.90
21918;DHT22;11123;49.882;8.662;2022-07-12T03:50:11;15.80;99.90
21918;DHT22;11123;49.882;8.662;2022-07-12T03:52:40;15.80;99.90
21918;DHT22;11123;49.882;8.662;2022-07-12T03:55:11;15.80;99.90
21918;DHT22;11123;49.882;8.662;2022-07-12T03:57:39;15.80;99.90
21918;DHT22;11123;49.882;8.662;2022-07-12T04:00:10;15.70;99.90
21918;DHT22;11123;49.882;8.662;2022-07-12T04:02:40;15.70;99.90
21918;DHT22;11123;49.882;8.662;2022-07-12T04:05:09;15.70;99.90
21918;DHT22;11123;49.882;8.662;2022-07-12T04:07:38;15.60;99.90
21918;DHT22;11123;49.882;8.662;2022-07-12T04:10:09;15.60;99.90
21918;DHT22;11123;49.882;8.662;2022-07-12T04:12:38;15.50;99.90
21918;DHT22;11123;49.882;8.662;2022-07-12T04:15:07;15.50;99.90
21918;DHT22;11123;49.882;8.662;2022-07-12T04:17:35;15.50;99.90
21918;DHT22;11123;49.882;8.662;2022-07-12T04:20:04;15.50;99.90
21918;DHT22;11123;49.882;8.662;2022-07-12T04:22:33;15.50;99.90
21918;DHT22;11123;49.882;8.662;2022-07-12T04:25:01;15.60;99.90
21918;DHT22;11123;49.882;8.662;2022-07-12T04:27:31;15.60;99.90
21918;DHT22;11123;49.882;8.662;2022-07-12T04:29:59;15.70;99.90
21918;DHT22;11123;49.882;8.662;2022-07-12T04:32:29;15.70;99.90
21918;DHT22;11123;49.882;8.662;2022-07-12T04:34:58;15.80;99.90
21918;DHT22;11123;49.882;8.662;2022-07-12T04:37:26;15.80;99.90
21918;DHT22;11123;49.882;8.662;2022-07-12T04:39:54;15.80;99.90
21918;DHT22;11123;49.882;8.662;2022-07-12T04:42:22;15.90;99.90
21918;DHT22;11123;49.882;8.662;2022-07-12T04:44:53;15.90;99.90
21918;DHT22;11123;49.882;8.662;2022-07-12T04:47:21;16.00;99.90
21918;DHT22;11123;49.882;8.662;2022-07-12T04:49:50;16.00;99.90
21918;DHT22;11123;49.882;8.662;2022-07-12T04:52:18;16.00;99.90
21918;DHT22;11123;49.882;8.662;2022-07-12T04:54:46;16.10;99.90
21918;DHT22;11123;49.882;8.662;2022-07-12T04:57:15;16.10;99.90
21918;DHT22;11123;49.882;8.662;2022-07-12T04:59:43;16.10;99.90
21918;DHT22;11123;49.882;8.662;2022-07-12T05:02:14;16.20;99.90
21918;DHT22;11123;49.882;8.662;2022-07-12T05:04:42;16.20;99.90
21918;DHT22;11123;49.882;8.662;2022-07-12T05:07:11;16.20;99.90
21918;DHT22;11123;49.882;8.662;2022-07-12T05:09:39;16.20;99.90
21918;DHT22;11123;49.882;8.662;2022-07-12T05:12:07;16.30;99.90
21918;DHT22;11123;49.882;8.662;2022-07-12T05:14:35;16.40;99.90
21918;DHT22;11123;49.882;8.662;2022-07-12T05:17:03;16.40;99.90
21918;DHT22;11123;49.882;8.662;2022-07-12T05:19:33;16.50;99.90
21918;DHT22;11123;49.882;8.662;2022-07-12T05:22:01;16.60;99.90
21918;DHT22;11123;49.882;8.662;2022-07-12T05:24:30;16.60;99.90
21918;DHT22;11123;49.882;8.662;2022-07-12T05:26:58;16.60;99.90
21918;DHT22;11123;49.882;8.662;2022-07-12T05:29:27;16.70;99.90
21918;DHT22;11123;49.882;8.662;2022-07-12T05:31:55;16.80;99.90
21918;DHT22;11123;49.882;8.662;2022-07-12T05:34:24;16.80;99.90
21918;DHT22;11123;49.882;8.662;2022-07-12T05:36:53;16.90;99.90
21918;DHT22;11123;49.882;8.662;2022-07-12T05:39:22;16.90;99.90
21918;DHT22;11123;49.882;8.662;2022-07-12T05:41:50;17.00;99.90
21918;DHT22;11123;49.882;8.662;2022-07-12T05:44:18;17.00;99.90
21918;DHT22;11123;49.882;8.662;2022-07-12T05:46:46;17.10;99.90
21918;DHT22;11123;49.882;8.662;2022-07-12T05:49:15;17.20;99.90
21918;DHT22;11123;49.882;8.662;2022-07-12T05:51:43;17.20;99.90
21918;DHT22;11123;49.882;8.662;2022-07-12T05:54:30;17.50;99.90
21918;DHT22;11123;49.882;8.662;2022-07-12T05:56:59;17.70;99.90
21918;DHT22;11123;49.882;8.662;2022-07-12T05:59:28;17.80;99.90
21918;DHT22;11123;49.882;8.662;2022-07-12T06:01:57;17.80;99.90
21918;DHT22;11123;49.882;8.662;2022-07-12T06:04:26;17.80;99.90
21918;DHT22;11123;49.882;8.662;2022-07-12T06:06:54;17.80;99.90
21918;DHT22;11123;49.882;8.662;2022-07-12T06:09:23;17.80;99.90
21918;DHT22;11123;49.882;8.662;2022-07-12T06:11:52;17.80;99.90
21918;DHT22;11123;49.882;8.662;2022-07-12T06:14:21;17.80;99.90
21918;DHT22;11123;49.882;8.662;2022-07-12T06:16:49;17.90;99.90
21918;DHT22;11123;49.882;8.662;2022-07-12T06:19:17;17.90;99.90
21918;DHT22;11123;49.882;8.662;2022-07-12T06:21:45;18.00;99.90
21918;DHT22;11123;49.882;8.662;2022-07-12T06:24:14;18.10;99.90
21918;DHT22;11123;49.882;8.662;2022-07-12T06:26:43;18.10;99.90
21918;DHT22;11123;49.882;8.662;2022-07-12T06:29:12;18.20;99.90
21918;DHT22;11123;49.882;8.662;2022-07-12T06:31:40;18.30;99.90
21918;DHT22;11123;49.882;8.662;2022-07-12T06:34:09;18.40;99.90
21918;DHT22;11123;49.882;8.662;2022-07-12T06:36:37;18.50;99.90
21918;DHT22;11123;49.882;8.662;2022-07-12T06:39:05;18.50;99.90
21918;DHT22;11123;49.882;8.662;2022-07-12T06:41:33;18.60;99.90
21918;DHT22;11123;49.882;8.662;2022-07-12T06:44:01;18.60;99.90
21918;DHT22;11123;49.882;8.662;2022-07-12T06:46:31;18.60;99.90
21918;DHT22;11123;49.882;8.662;2022-07-12T06:48:59;18.60;99.90
21918;DHT22;11123;49.882;8.662;2022-07-12T06:51:29;18.70;99.90
21918;DHT22;11123;49.882;8.662;2022-07-12T06:53:57;18.80;99.90
21918;DHT22;11123;49.882;8.662;2022-07-12T06:56:25;18.80;99.90
21918;DHT22;11123;49.882;8.662;2022-07-12T06:58:53;18.90;99.90
21918;DHT22;11123;49.882;8.662;2022-07-12T07:01:22;19.00;99.90
21918;DHT22;11123;49.882;8.662;2022-07-12T07:03:51;19.20;99.90
21918;DHT22;11123;49.882;8.662;2022-07-12T07:06:20;19.20;99.90
21918;DHT22;11123;49.882;8.662;2022-07-12T07:08:48;19.30;99.90
21918;DHT22;11123;49.882;8.662;2022-07-12T07:11:16;19.40;99.90
21918;DHT22;11123;49.882;8.662;2022-07-12T07:13:44;19.50;99.90
21918;DHT22;11123;49.882;8.662;2022-07-12T07:16:18;19.60;99.90
21918;DHT22;11123;49.882;8.662;2022-07-12T07:18:47;19.70;99.90
21918;DHT22;11123;49.882;8.662;2022-07-12T07:21:16;19.70;99.90
21918;DHT22;11123;49.882;8.662;2022-07-12T07:23:44;19.80;99.90
21918;DHT22;11123;49.882;8.662;2022-07-12T07:26:13;19.80;99.90
21918;DHT22;11123;49.882;8.662;2022-07-12T07:28:42;20.00;96.70
21918;DHT22;11123;49.882;8.662;2022-07-12T07:31:27;20.00;92.10
21918;DHT22;11123;49.882;8.662;2022-07-12T07:33:56;20.10;90.50
21918;DHT22;11123;49.882;8.662;2022-07-12T07:36:25;20.20;86.00
21918;DHT22;11123;49.882;8.662;2022-07-12T07:38:54;20.20;82.80
21918;DHT22;11123;49.882;8.662;2022-07-12T07:41:22;20.20;83.30
21918;DHT22;11123;49.882;8.662;2022-07-12T07:43:50;20.30;81.50
21918;DHT22;11123;49.882;8.662;2022-07-12T07:46:18;20.30;75.10
21918;DHT22;11123;49.882;8.662;2022-07-12T07:48:46;20.40;73.80
21918;DHT22;11123;49.882;8.662;2022-07-12T07:51:15;20.40;70.90
21918;DHT22;11123;49.882;8.662;2022-07-12T07:53:44;20.50;70.00
21918;DHT22;11123;49.882;8.662;2022-07-12T07:56:12;20.60;60.90
21918;DHT22;11123;49.882;8.662;2022-07-12T07:58:40;20.60;59.10
21918;DHT22;11123;49.882;8.662;2022-07-12T08:01:09;20.70;56.80
21918;DHT22;11123;49.882;8.662;2022-07-12T08:03:37;20.70;49.80
21918;DHT22;11123;49.882;8.662;2022-07-12T08:06:06;20.80;50.70
21918;DHT22;11123;49.882;8.662;2022-07-12T08:08:34;20.80;44.00
21918;DHT22;11123;49.882;8.662;2022-07-12T08:11:24;20.90;39.20
21918;DHT22;11123;49.882;8.662;2022-07-12T08:13:52;21.00;36.80
21918;DHT22;11123;49.882;8.662;2022-07-12T08:16:20;21.10;27.30
21918;DHT22;11123;49.882;8.662;2022-07-12T08:18:48;21.10;27.90
21918;DHT22;11123;49.882;8.662;2022-07-12T08:21:17;21.10;21.70
21918;DHT22;11123;49.882;8.662;2022-07-12T08:23:45;21.20;15.60
21918;DHT22;11123;49.882;8.662;2022-07-12T08:26:13;21.30;16.20
21918;DHT22;11123;49.882;8.662;2022-07-12T08:28:43;21.50;13.80
21918;DHT22;11123;49.882;8.662;2022-07-12T08:31:11;21.70;6.20
21918;DHT22;11123;49.882;8.662;2022-07-12T08:33:41;21.70;1.00
21918;DHT22;11123;49.882;8.662;2022-07-12T08:36:09;21.80;1.00
21918;DHT22;11123;49.882;8.662;2022-07-12T08:38:38;21.90;1.00
21918;DHT22;11123;49.882;8.662;2022-07-12T08:41:11;21.90;1.00
21918;DHT22;11123;49.882;8.662;2022-07-12T08:43:40;22.00;1.00
21918;DHT22;11123;49.882;8.662;2022-07-12T08:46:11;21.90;1.00
21918;DHT22;11123;49.882;8.662;2022-07-12T08:48:41;21.90;1.00
21918;DHT22;11123;49.882;8.662;2022-07-12T08:51:10;21.80;1.00
21918;DHT22;11123;49.882;8.662;2022-07-12T08:53:39;21.80;1.00
21918;DHT22;11123;49.882;8.662;2022-07-12T08:56:07;21.60;1.00
21918;DHT22;11123;49.882;8.662;2022-07-12T08:59:09;21.60;1.00
21918;DHT22;11123;49.882;8.662;2022-07-12T09:01:43;21.70;1.00
21918;DHT22;11123;49.882;8.662;2022-07-12T09:04:13;21.80;1.00
21918;DHT22;11123;49.882;8.662;2022-07-12T09:06:42;21.80;1.00
21918;DHT22;11123;49.882;8.662;2022-07-12T09:09:10;21.90;1.00
21918;DHT22;11123;49.882;8.662;2022-07-12T09:11:39;22.10;1.00
21918;DHT22;11123;49.882;8.662;2022-07-12T09:14:07;22.20;1.00
21918;DHT22;11123;49.882;8.662;2022-07-12T09:16:35;22.40;1.00
21918;DHT22;11123;49.882;8.662;2022-07-12T09:19:16;22.50;1.00
21918;DHT22;11123;49.882;8.662;2022-07-12T09:21:48;22.60;1.00
21918;DHT22;11123;49.882;8.662;2022-07-12T09:24:18;22.60;1.00
21918;DHT22;11123;49.882;8.662;2022-07-12T09:26:47;22.70;1.00
21918;DHT22;11123;49.882;8.662;2022-07-12T09:29:15;22.90;1.00
21918;DHT22;11123;49.882;8.662;2022-07-12T09:31:48;23.00;1.00
21918;DHT22;11123;49.882;8.662;2022-07-12T09:34:35;23.20;1.00
21918;DHT22;11123;49.882;8.662;2022-07-12T09:37:22;23.30;1.00
21918;DHT22;11123;49.882;8.662;2022-07-12T09:39:52;23.30;1.00
21918;DHT22;11123;49.882;8.662;2022-07-12T09:42:20;23.30;1.00
21918;DHT22;11123;49.882;8.662;2022-07-12T09:44:55;23.40;1.00
21918;DHT22;11123;49.882;8.662;2022-07-12T09:47:24;23.60;1.00
21918;DHT22;11123;49.882;8.662;2022-07-12T09:49:54;23.70;1.00
21918;DHT22;11123;49.882;8.662;2022-07-12T09:52:27;23.60;1.00
21918;DHT22;11123;49.882;8.662;2022-07-12T09:54:56;23.50;1.00
21918;DHT22;11123;49.882;8.662;2022-07-12T09:57:27;23.30;1.00
21918;DHT22;11123;49.882;8.662;2022-07-12T09:59:57;23.00;1.00
21918;DHT22;11123;49.882;8.662;2022-07-12T10:02:26;22.90;1.00
21918;DHT22;11123;49.882;8.662;2022-07-12T10:04:59;22.90;1.00
21918;DHT22;11123;49.882;8.662;2022-07-12T10:07:28;23.00;1.00
21918;DHT22;11123;49.882;8.662;2022-07-12T10:09:56;23.20;1.00
21918;DHT22;11123;49.882;8.662;2022-07-12T10:12:25;23.20;1.00
21918;DHT22;11123;49.882;8.662;2022-07-12T10:14:59;23.40;1.00
21918;DHT22;11123;49.882;8.662;2022-07-12T10:17:29;23.50;1.00
21918;DHT22;11123;49.882;8.662;2022-07-12T10:20:17;23.60;1.00
21918;DHT22;11123;49.882;8.662;2022-07-12T10:22:52;23.50;1.00
21918;DHT22;11123;49.882;8.662;2022-07-12T10:25:28;23.50;1.00
21918;DHT22;11123;49.882;8.662;2022-07-12T10:27:58;23.60;1.00
21918;DHT22;11123;49.882;8.662;2022-07-12T10:30:26;23.80;1.00
21918;DHT22;11123;49.882;8.662;2022-07-12T10:32:56;23.80;1.00
21918;DHT22;11123;49.882;8.662;2022-07-12T10:35:29;23.90;1.00
21918;DHT22;11123;49.882;8.662;2022-07-12T10:38:18;24.10;1.00
21918;DHT22;11123;49.882;8.662;2022-07-12T10:40:48;24.20;1.00
21918;DHT22;11123;49.882;8.662;2022-07-12T10:43:25;24.20;1.00
21918;DHT22;11123;49.882;8.662;2022-07-12T10:46:17;24.30;1.00
21918;DHT22;11123;49.882;8.662;2022-07-12T10:48:50;24.60;1.00
21918;DHT22;11123;49.882;8.662;2022-07-12T10:51:19;24.70;1.00
21918;DHT22;11123;49.882;8.662;2022-07-12T10:53:48;24.70;1.00
21918;DHT22;11123;49.882;8.662;2022-07-12T10:56:19;24.70;1.00
21918;DHT22;11123;49.882;8.662;2022-07-12T10:58:56;24.80;1.00
21918;DHT22;11123;49.882;8.662;2022-07-12T11:01:26;24.90;1.00
21918;DHT22;11123;49.882;8.662;2022-07-12T11:03:56;25.10;1.00
21918;DHT22;11123;49.882;8.662;2022-07-12T11:06:26;25.10;1.00
21918;DHT22;11123;49.882;8.662;2022-07-12T11:08:57;25.10;1.00
21918;DHT22;11123;49.882;8.662;2022-07-12T11:11:27;25.20;1.00
21918;DHT22;11123;49.882;8.662;2022-07-12T11:13:56;25.20;1.00
21918;DHT22;11123;49.882;8.662;2022-07-12T11:16:25;25.40;1.00
21918;DHT22;11123;49.882;8.662;2022-07-12T11:18:54;25.30;1.00
21918;DHT22;11123;49.882;8.662;2022-07-12T11:21:24;25.30;1.00
21918;DHT22;11123;49.882;8.662;2022-07-12T11:23:53;25.10;1.00
21918;DHT22;11123;49.882;8.662;2022-07-12T11:26:22;25.20;1.00
21918;DHT22;11123;49.882;8.662;2022-07-12T11:28:50;25.40;1.00
21918;DHT22;11123;49.882;8.662;2022-07-12T11:31:19;25.40;1.00
21918;DHT22;11123;49.882;8.662;2022-07-12T11:33:49;25.30;1.00
21918;DHT22;11123;49.882;8.662;2022-07-12T11:36:19;25.50;1.00
21918;DHT22;11123;49.882;8.662;2022-07-12T11:38:47;25.70;1.00
21918;DHT22;11123;49.882;8.662;2022-07-12T11:41:17;25.90;1.00
21918;DHT22;11123;49.882;8.662;2022-07-12T11:43:46;26.10;1.00
21918;DHT22;11123;49.882;8.662;2022-07-12T11:46:14;26.70;1.00
21918;DHT22;11123;49.882;8.662;2022-07-12T11:48:43;26.80;1.00
21918;DHT22;11123;49.882;8.662;2022-07-12T11:51:12;26.70;1.00
21918;DHT22;11123;49.882;8.662;2022-07-12T11:53:51;26.70;1.00
21918;DHT22;11123;49.882;8.662;2022-07-12T11:56:30;26.70;1.00
21918;DHT22;11123;49.882;8.662;2022-07-12T11:58:59;26.80;1.00
21918;DHT22;11123;49.882;8.662;2022-07-12T12:01:27;26.90;1.00
21918;DHT22;11123;49.882;8.662;2022-07-12T12:03:55;26.80;1.00
21918;DHT22;11123;49.882;8.662;2022-07-12T12:06:23;26.80;99.90
21918;DHT22;11123;49.882;8.662;2022-07-12T12:08:52;26.60;99.90
21918;DHT22;11123;49.882;8.662;2022-07-12T12:11:26;26.80;99.90
21918;DHT22;11123;49.882;8.662;2022-07-12T12:13:57;27.00;99.90
21918;DHT22;11123;49.882;8.662;2022-07-12T12:16:26;27.20;99.90
21918;DHT22;11123;49.882;8.662;2022-07-12T12:19:00;27.40;99.90
21918;DHT22;11123;49.882;8.662;2022-07-12T12:21:29;27.80;99.90
21918;DHT22;11123;49.882;8.662;2022-07-12T12:24:09;28.10;99.90
21918;DHT22;11123;49.882;8.662;2022-07-12T12:26:37;28.10;99.90
21918;DHT22;11123;49.882;8.662;2022-07-12T12:29:07;28.10;99.90
21918;DHT22;11123;49.882;8.662;2022-07-12T12:31:36;28.00;99.90
21918;DHT22;11123;49.882;8.662;2022-07-12T12:34:10;27.80;99.90
21918;DHT22;11123;49.882;8.662;2022-07-12T12:36:39;27.70;99.90
21918;DHT22;11123;49.882;8.662;2022-07-12T12:39:07;27.80;99.90
21918;DHT22;11123;49.882;8.662;2022-07-12T12:41:41;27.70;99.90
21918;DHT22;11123;49.882;8.662;2022-07-12T12:44:12;27.60;99.90
21918;DHT22;11123;49.882;8.662;2022-07-12T12:46:43;27.50;99.90
21918;DHT22;11123;49.882;8.662;2022-07-12T12:49:12;27.60;99.90
21918;DHT22;11123;49.882;8.662;2022-07-12T12:51:54;28.20;99.90
21918;DHT22;11123;49.882;8.662;2022-07-12T12:54:36;28.20;99.90
21918;DHT22;11123;49.882;8.662;2022-07-12T12:57:06;27.60;99.90
21918;DHT22;11123;49.882;8.662;2022-07-12T12:59:36;27.80;99.90
21918;DHT22;11123;49.882;8.662;2022-07-12T13:02:06;28.20;99.90
21918;DHT22;11123;49.882;8.662;2022-07-12T13:04:36;28.20;99.90
21918;DHT22;11123;49.882;8.662;2022-07-12T13:07:05;28.30;99.90
21918;DHT22;11123;49.882;8.662;2022-07-12T13:09:38;28.30;99.90
21918;DHT22;11123;49.882;8.662;2022-07-12T13:12:07;28.00;99.90
21918;DHT22;11123;49.882;8.662;2022-07-12T13:14:37;28.20;99.90
21918;DHT22;11123;49.882;8.662;2022-07-12T13:17:05;28.60;99.90
21918;DHT22;11123;49.882;8.662;2022-07-12T13:19:34;28.60;99.90
21918;DHT22;11123;49.882;8.662;2022-07-12T13:22:02;28.70;99.90
21918;DHT22;11123;49.882;8.662;2022-07-12T13:24:30;28.70;99.90
21918;DHT22;11123;49.882;8.662;2022-07-12T13:26:59;28.90;99.90
21918;DHT22;11123;49.882;8.662;2022-07-12T13:29:27;28.90;99.90
21918;DHT22;11123;49.882;8.662;2022-07-12T13:31:56;28.90;99.90
21918;DHT22;11123;49.882;8.662;2022-07-12T13:34:25;29.20;99.90
21918;DHT22;11123;49.882;8.662;2022-07-12T13:36:53;29.60;98.40
21918;DHT22;11123;49.882;8.662;2022-07-12T13:39:21;29.70;81.30
21918;DHT22;11123;49.882;8.662;2022-07-12T13:42:07;29.50;41.70
21918;DHT22;11123;49.882;8.662;2022-07-12T13:44:35;29.00;33.40
21918;DHT22;11123;49.882;8.662;2022-07-12T13:47:05;28.90;35.70
21918;DHT22;11123;49.882;8.662;2022-07-12T13:49:33;29.00;35.90
21918;DHT22;11123;49.882;8.662;2022-07-12T13:52:01;29.30;27.00
21918;DHT22;11123;49.882;8.662;2022-07-12T13:54:29;29.40;19.50
21918;DHT22;11123;49.882;8.662;2022-07-12T13:56:58;29.40;1.00
21918;DHT22;11123;49.882;8.662;2022-07-12T13:59:26;29.60;1.00
21918;DHT22;11123;49.882;8.662;2022-07-12T14:01:55;30.20;1.00
21918;DHT22;11123;49.882;8.662;2022-07-12T14:04:25;30.70;1.00
21918;DHT22;11123;49.882;8.662;2022-07-12T14:06:53;30.50;1.00
21918;DHT22;11123;49.882;8.662;2022-07-12T14:09:21;30.40;1.00
21918;DHT22;11123;49.882;8.662;2022-07-12T14:11:50;30.40;1.00
21918;DHT22;11123;49.882;8.662;2022-07-12T14:14:18;30.30;1.00
21918;DHT22;11123;49.882;8.662;2022-07-12T14:17:07;30.50;1.00
21918;DHT22;11123;49.882;8.662;2022-07-12T14:19:36;30.40;1.00
21918;DHT22;11123;49.882;8.662;2022-07-12T14:22:05;30.50;1.00
21918;DHT22;11123;49.882;8.662;2022-07-12T14:24:33;30.40;1.00
21918;DHT22;11123;49.882;8.662;2022-07-12T14:27:01;30.40;1.00
21918;DHT22;11123;49.882;8.662;2022-07-12T14:29:30;30.40;1.00
21918;DHT22;11123;49.882;8.662;2022-07-12T14:31:59;30.40;1.00
21918;DHT22;11123;49.882;8.662;2022-07-12T14:34:28;30.70;1.00
21918;DHT22;11123;49.882;8.662;2022-07-12T14:36:58;30.90;1.00
21918;DHT22;11123;49.882;8.662;2022-07-12T14:39:27;31.00;1.00
21918;DHT22;11123;49.882;8.662;2022-07-12T14:41:56;30.90;1.00
21918;DHT22;11123;49.882;8.662;2022-07-12T14:44:25;30.60;1.00
21918;DHT22;11123;49.882;8.662;2022-07-12T14:46:54;30.70;1.00
21918;DHT22;11123;49.882;8.662;2022-07-12T14:49:22;30.70;1.00
21918;DHT22;11123;49.882;8.662;2022-07-12T14:51:50;30.80;1.00
21918;DHT22;11123;49.882;8.662;2022-07-12T14:54:20;30.80;1.00
21918;DHT22;11123;49.882;8.662;2022-07-12T14:56:48;30.80;1.00
21918;DHT22;11123;49.882;8.662;2022-07-12T14:59:19;30.90;1.00
21918;DHT22;11123;49.882;8.662;2022-07-12T15:01:49;31.20;1.00
21918;DHT22;11123;49.882;8.662;2022-07-12T15:04:17;31.40;1.00
21918;DHT22;11123;49.882;8.662;2022-07-12T15:06:45;31.60;1.00
21918;DHT22;11123;49.882;8.662;2022-07-12T15:09:14;31.90;1.00
21918;DHT22;11123;49.882;8.662;2022-07-12T15:11:43;32.10;1.00
21918;DHT22;11123;49.882;8.662;2022-07-12T15:14:12;32.00;1.00
21918;DHT22;11123;49.882;8.662;2022-07-12T15:16:40;32.20;1.00
21918;DHT22;11123;49.882;8.662;2022-07-12T15:19:09;32.80;1.00
21918;DHT22;11123;49.882;8.662;2022-07-12T15:21:37;33.80;1.00
21918;DHT22;11123;49.882;8.662;2022-07-12T15:24:05;34.40;1.00
21918;DHT22;11123;49.882;8.662;2022-07-12T15:26:33;34.80;1.00
21918;DHT22;11123;49.882;8.662;2022-07-12T15:29:03;34.90;1.00
21918;DHT22;11123;49.882;8.662;2022-07-12T15:31:32;34.40;1.00
21918;DHT22;11123;49.882;8.662;2022-07-12T15:34:00;34.00;1.00
21918;DHT22;11123;49.882;8.662;2022-07-12T15:36:29;33.70;1.00
21918;DHT22;11123;49.882;8.662;2022-07-12T15:38:58;32.80;1.00
21918;DHT22;11123;49.882;8.662;2022-07-12T15:41:27;32.20;1.00
21918;DHT22;11123;49.882;8.662;2022-07-12T15:43:56;32.00;1.00
21918;DHT22;11123;49.882;8.662;2022-07-12T15:46:27;31.80;1.00
21918;DHT22;11123;49.882;8.662;2022-07-12T15:48:55;31.40;1.00
21918;DHT22;11123;49.882;8.662;2022-07-12T15:51:24;31.30;1.00
21918;DHT22;11123;49.882;8.662;2022-07-12T15:54:06;31.00;1.00